UPSVAC Airport Information Service

Manchester Boston Regional Airport

ICAO: KMHT Country: United States
Latitude: 42.9328 Longitude: -71.4357
Latest Arrival : UPSJUMP (KMIA-KMHT) Latest Departure : REP518 (KMHT-KPHL)


WX CaptureLIVE
Data provided by noaa.gov | Fetched at 13:46:30

METAR : KMHT 141253Z 16005KT 10SM SCT060 10/03 A3008 RMK AO2 SLP199 T01000033

TAF : KMHT 141120Z 1412/1512 06003KT P6SM BKN070 FM141300 13003KT P6SM BKN050 FM142100 13006KT P6SM OVC100 FM142300 12003KT P6SM OVC050


Runway Data for KMHT
Data provided by openaviationdata.com

Runway ID Mag Var Hdg Length Elevation Surface ILS Freq ILS Id ILS Slope
6 -15 58° 6846 ft 223 ft Asphalt 109.95 IMJE 3
17 -15 172° 9250 ft 223 ft Asphalt 109.1 IMNA 3
24 -15 238° 6846 ft 223 ft Asphalt -- -- --
35 -15 352° 9250 ft 223 ft Asphalt 109.1 IMHT 3

Manchester Boston Regional Airport, United States
Use only for reference purposes



Not for navigational purposes.